Airfield :
LOGIN :

Register | Disclaimer

   EN    FR    IT 

 










Legend :    VFR   Marginal VFR   IFR   Intensive IFR   Very Intensive IFR
Visi :
Ceiling :
>= 8 km
>= 3000ft
5 to 8 km
1000 to 3000 ft
1500m to 5 km
500 to 1000 ft
800 to 1500m
200 to 500 ft
< 800m
< 200 ft
Symbols :   Thunderstorms  Fog  Heavy snow  Heavy precipitations  Wind > 20 kt
SIGMETs :     Misc.  Thunderstorms  Icing  Turbulence  Mountain Waves  Volcanic Ashes






- Airport Elevation : 390 ft
- IATA code : TMP


EFTP - Tampere-Pirkkala

CURRENT METAR :
  • 082250Z AUTO 13003KT 9999 SCT023 09/08 Q1005

EXPIRED METARs :
  • 082220Z AUTO 14003KT 9999 SCT025 10/08 Q1005
  • 082150Z AUTO 17004KT 9999 SHRA BKN027 10/08 Q1005
  • 082120Z AUTO VRB01KT 9999 FEW032 SCT046 09/07 Q1005
  • 082050Z AUTO VRB02KT 9999 FEW035 09/07 Q1005
  • 082020Z AUTO VRB01KT 9999 FEW037 09/08 Q1005

TAF TAF EFTP
Valid from the 08 at 21:00 until the 09 at 21:00 UTC


082029Z 0821/0921 16002KT 9999 FEW035
TEMPO 0821/0908 FEW035CB
BECMG 0908/0910 24010KT
TEMPO 0908/0918 7000 SCT030CB
PROB40
TEMPO 0908/0918 4000 TSRA



MET'MAP, your aeronautical weather chart ! - Copyright ORBIFLY December 2007 - Disclaimer

ORBIFLY MET'MAP TEAM :

Programming & Development : Alexandra Zaïnal
Concept & original design : Baudouin d'Aumeries
Assistance for programming : Marc-Olivier Méhu
Technical & hardware support : Manuel Goepfert

Contact : metmap@orbifly.com




SOURCES & CREDITS :

   NOAA